sensor_id;sensor_type;location;lat;lon;timestamp;temperature;humidity
26326;DHT22;14032;52.510;7.342;2023-06-19T00:01:08;23.50;83.90
26326;DHT22;14032;52.510;7.342;2023-06-19T00:03:34;23.50;83.70
26326;DHT22;14032;52.510;7.342;2023-06-19T00:05:59;23.50;83.80
26326;DHT22;14032;52.510;7.342;2023-06-19T00:08:25;23.50;84.00
26326;DHT22;14032;52.510;7.342;2023-06-19T00:10:50;23.50;84.30
26326;DHT22;14032;52.510;7.342;2023-06-19T00:13:16;23.40;84.50
26326;DHT22;14032;52.510;7.342;2023-06-19T00:15:42;23.40;84.60
26326;DHT22;14032;52.510;7.342;2023-06-19T00:18:07;23.40;84.70
26326;DHT22;14032;52.510;7.342;2023-06-19T00:20:33;23.40;84.90
26326;DHT22;14032;52.510;7.342;2023-06-19T00:23:00;23.40;84.80
26326;DHT22;14032;52.510;7.342;2023-06-19T00:25:26;23.40;84.90
26326;DHT22;14032;52.510;7.342;2023-06-19T00:27:51;23.30;85.00
26326;DHT22;14032;52.510;7.342;2023-06-19T00:30:17;23.20;85.50
26326;DHT22;14032;52.510;7.342;2023-06-19T00:32:43;23.20;86.00
26326;DHT22;14032;52.510;7.342;2023-06-19T00:35:15;23.20;86.00
26326;DHT22;14032;52.510;7.342;2023-06-19T00:37:43;23.10;85.90
26326;DHT22;14032;52.510;7.342;2023-06-19T00:40:41;23.10;86.10
26326;DHT22;14032;52.510;7.342;2023-06-19T00:43:07;23.10;86.30
26326;DHT22;14032;52.510;7.342;2023-06-19T00:45:32;23.10;86.50
26326;DHT22;14032;52.510;7.342;2023-06-19T00:47:59;23.10;86.60
26326;DHT22;14032;52.510;7.342;2023-06-19T00:50:27;23.10;86.80
26326;DHT22;14032;52.510;7.342;2023-06-19T00:52:53;23.10;86.90
26326;DHT22;14032;52.510;7.342;2023-06-19T00:55:19;23.10;87.80
26326;DHT22;14032;52.510;7.342;2023-06-19T00:57:45;23.00;87.10
26326;DHT22;14032;52.510;7.342;2023-06-19T01:00:11;23.00;87.40
26326;DHT22;14032;52.510;7.342;2023-06-19T01:02:38;23.00;87.60
26326;DHT22;14032;52.510;7.342;2023-06-19T01:05:05;23.00;87.70
26326;DHT22;14032;52.510;7.342;2023-06-19T01:10:07;23.00;88.00
26326;DHT22;14032;52.510;7.342;2023-06-19T01:12:37;23.00;88.10
26326;DHT22;14032;52.510;7.342;2023-06-19T01:15:04;22.90;88.30
26326;DHT22;14032;52.510;7.342;2023-06-19T01:17:31;22.90;88.30
26326;DHT22;14032;52.510;7.342;2023-06-19T01:19:57;22.90;88.50
26326;DHT22;14032;52.510;7.342;2023-06-19T01:22:27;22.90;88.60
26326;DHT22;14032;52.510;7.342;2023-06-19T01:24:53;22.80;88.60
26326;DHT22;14032;52.510;7.342;2023-06-19T01:27:18;22.80;88.90
26326;DHT22;14032;52.510;7.342;2023-06-19T01:29:44;22.80;89.10
26326;DHT22;14032;52.510;7.342;2023-06-19T01:32:17;22.80;89.30
26326;DHT22;14032;52.510;7.342;2023-06-19T01:34:46;22.80;89.30
26326;DHT22;14032;52.510;7.342;2023-06-19T01:37:12;22.70;89.50
26326;DHT22;14032;52.510;7.342;2023-06-19T01:39:39;22.70;89.50
26326;DHT22;14032;52.510;7.342;2023-06-19T01:42:06;22.70;89.70
26326;DHT22;14032;52.510;7.342;2023-06-19T01:44:35;22.70;89.90
26326;DHT22;14032;52.510;7.342;2023-06-19T01:47:08;22.70;89.90
26326;DHT22;14032;52.510;7.342;2023-06-19T01:49:34;22.70;90.00
26326;DHT22;14032;52.510;7.342;2023-06-19T01:51:59;22.70;90.10
26326;DHT22;14032;52.510;7.342;2023-06-19T01:54:26;22.60;90.10
26326;DHT22;14032;52.510;7.342;2023-06-19T01:56:52;22.60;90.20
26326;DHT22;14032;52.510;7.342;2023-06-19T01:59:17;22.60;90.40
26326;DHT22;14032;52.510;7.342;2023-06-19T02:01:43;22.60;90.40
26326;DHT22;14032;52.510;7.342;2023-06-19T02:04:09;22.50;90.50
26326;DHT22;14032;52.510;7.342;2023-06-19T02:06:34;22.50;90.80
26326;DHT22;14032;52.510;7.342;2023-06-19T02:09:01;22.50;90.70
26326;DHT22;14032;52.510;7.342;2023-06-19T02:11:26;22.50;90.70
26326;DHT22;14032;52.510;7.342;2023-06-19T02:13:52;22.50;90.90
26326;DHT22;14032;52.510;7.342;2023-06-19T02:16:17;22.50;91.00
26326;DHT22;14032;52.510;7.342;2023-06-19T02:18:43;22.50;91.00
26326;DHT22;14032;52.510;7.342;2023-06-19T02:21:09;22.50;91.00
26326;DHT22;14032;52.510;7.342;2023-06-19T02:23:34;22.50;91.00
26326;DHT22;14032;52.510;7.342;2023-06-19T02:26:00;22.50;91.20
26326;DHT22;14032;52.510;7.342;2023-06-19T02:28:26;22.50;91.30
26326;DHT22;14032;52.510;7.342;2023-06-19T02:30:53;22.50;91.60
26326;DHT22;14032;52.510;7.342;2023-06-19T02:33:19;22.40;91.80
26326;DHT22;14032;52.510;7.342;2023-06-19T02:35:45;22.40;91.40
26326;DHT22;14032;52.510;7.342;2023-06-19T02:38:10;22.40;91.40
26326;DHT22;14032;52.510;7.342;2023-06-19T02:40:38;22.40;91.60
26326;DHT22;14032;52.510;7.342;2023-06-19T02:43:04;22.40;91.50
26326;DHT22;14032;52.510;7.342;2023-06-19T02:45:29;22.40;91.70
26326;DHT22;14032;52.510;7.342;2023-06-19T02:47:55;22.40;91.60
26326;DHT22;14032;52.510;7.342;2023-06-19T02:50:20;22.40;91.70
26326;DHT22;14032;52.510;7.342;2023-06-19T02:52:46;22.40;91.80
26326;DHT22;14032;52.510;7.342;2023-06-19T02:55:11;22.50;91.80
26326;DHT22;14032;52.510;7.342;2023-06-19T02:57:37;22.40;91.90
26326;DHT22;14032;52.510;7.342;2023-06-19T03:00:03;22.40;92.10
26326;DHT22;14032;52.510;7.342;2023-06-19T03:02:31;22.40;92.10
26326;DHT22;14032;52.510;7.342;2023-06-19T03:04:56;22.40;92.20
26326;DHT22;14032;52.510;7.342;2023-06-19T03:07:22;22.40;92.30
26326;DHT22;14032;52.510;7.342;2023-06-19T03:09:48;22.30;92.30
26326;DHT22;14032;52.510;7.342;2023-06-19T03:12:13;22.30;92.50
26326;DHT22;14032;52.510;7.342;2023-06-19T03:14:39;22.30;92.60
26326;DHT22;14032;52.510;7.342;2023-06-19T03:17:05;22.30;92.70
26326;DHT22;14032;52.510;7.342;2023-06-19T03:19:31;22.30;92.80
26326;DHT22;14032;52.510;7.342;2023-06-19T03:21:57;22.30;92.90
26326;DHT22;14032;52.510;7.342;2023-06-19T03:24:22;22.20;93.10
26326;DHT22;14032;52.510;7.342;2023-06-19T03:26:48;22.20;93.10
26326;DHT22;14032;52.510;7.342;2023-06-19T03:29:13;22.20;93.10
26326;DHT22;14032;52.510;7.342;2023-06-19T03:31:39;22.20;93.10
26326;DHT22;14032;52.510;7.342;2023-06-19T03:34:05;22.10;93.30
26326;DHT22;14032;52.510;7.342;2023-06-19T03:36:30;22.10;93.20
26326;DHT22;14032;52.510;7.342;2023-06-19T03:38:56;22.20;93.50
26326;DHT22;14032;52.510;7.342;2023-06-19T03:41:22;22.10;93.50
26326;DHT22;14032;52.510;7.342;2023-06-19T03:43:47;22.20;93.60
26326;DHT22;14032;52.510;7.342;2023-06-19T03:46:13;22.10;93.60
26326;DHT22;14032;52.510;7.342;2023-06-19T03:48:38;22.10;93.60
26326;DHT22;14032;52.510;7.342;2023-06-19T03:51:04;22.10;93.70
26326;DHT22;14032;52.510;7.342;2023-06-19T03:53:29;22.10;93.80
26326;DHT22;14032;52.510;7.342;2023-06-19T03:55:55;22.10;93.80
26326;DHT22;14032;52.510;7.342;2023-06-19T03:58:20;22.10;94.10
26326;DHT22;14032;52.510;7.342;2023-06-19T04:00:46;22.00;94.10
26326;DHT22;14032;52.510;7.342;2023-06-19T04:03:12;22.00;94.30
26326;DHT22;14032;52.510;7.342;2023-06-19T04:05:37;22.00;94.40
26326;DHT22;14032;52.510;7.342;2023-06-19T04:08:04;22.00;94.60
26326;DHT22;14032;52.510;7.342;2023-06-19T04:10:29;22.00;95.00
26326;DHT22;14032;52.510;7.342;2023-06-19T04:12:56;21.90;94.70
26326;DHT22;14032;52.510;7.342;2023-06-19T04:15:22;21.90;94.90
26326;DHT22;14032;52.510;7.342;2023-06-19T04:17:48;21.90;94.80
26326;DHT22;14032;52.510;7.342;2023-06-19T04:20:14;21.90;94.90
26326;DHT22;14032;52.510;7.342;2023-06-19T04:22:40;21.90;95.00
26326;DHT22;14032;52.510;7.342;2023-06-19T04:25:10;22.00;95.10
26326;DHT22;14032;52.510;7.342;2023-06-19T04:27:38;22.00;95.20
26326;DHT22;14032;52.510;7.342;2023-06-19T04:30:04;22.00;95.30
26326;DHT22;14032;52.510;7.342;2023-06-19T04:32:32;22.00;95.50
26326;DHT22;14032;52.510;7.342;2023-06-19T04:34:57;21.90;95.60
26326;DHT22;14032;52.510;7.342;2023-06-19T04:37:23;22.00;95.80
26326;DHT22;14032;52.510;7.342;2023-06-19T04:39:48;21.90;95.90
26326;DHT22;14032;52.510;7.342;2023-06-19T04:42:16;21.90;96.00
26326;DHT22;14032;52.510;7.342;2023-06-19T04:44:49;21.90;96.20
26326;DHT22;14032;52.510;7.342;2023-06-19T04:47:19;21.90;96.60
26326;DHT22;14032;52.510;7.342;2023-06-19T04:49:45;21.90;96.70
26326;DHT22;14032;52.510;7.342;2023-06-19T04:52:11;21.90;97.20
26326;DHT22;14032;52.510;7.342;2023-06-19T04:54:37;21.90;97.20
26326;DHT22;14032;52.510;7.342;2023-06-19T04:57:03;21.90;97.30
26326;DHT22;14032;52.510;7.342;2023-06-19T04:59:29;22.00;97.30
26326;DHT22;14032;52.510;7.342;2023-06-19T05:01:56;21.90;97.50
26326;DHT22;14032;52.510;7.342;2023-06-19T05:04:22;22.00;97.70
26326;DHT22;14032;52.510;7.342;2023-06-19T05:06:49;22.00;97.90
26326;DHT22;14032;52.510;7.342;2023-06-19T05:09:14;22.00;98.20
26326;DHT22;14032;52.510;7.342;2023-06-19T05:11:40;22.00;98.30
26326;DHT22;14032;52.510;7.342;2023-06-19T05:14:05;22.00;98.50
26326;DHT22;14032;52.510;7.342;2023-06-19T05:16:31;22.00;98.70
26326;DHT22;14032;52.510;7.342;2023-06-19T05:18:57;21.90;98.90
26326;DHT22;14032;52.510;7.342;2023-06-19T05:21:22;21.90;99.10
26326;DHT22;14032;52.510;7.342;2023-06-19T05:23:48;21.90;99.30
26326;DHT22;14032;52.510;7.342;2023-06-19T05:26:24;22.00;99.90
26326;DHT22;14032;52.510;7.342;2023-06-19T05:28:51;22.00;99.90
26326;DHT22;14032;52.510;7.342;2023-06-19T05:31:17;22.00;99.90
26326;DHT22;14032;52.510;7.342;2023-06-19T05:33:44;22.00;99.90
26326;DHT22;14032;52.510;7.342;2023-06-19T05:36:10;22.10;99.90
26326;DHT22;14032;52.510;7.342;2023-06-19T05:38:36;22.10;99.90
26326;DHT22;14032;52.510;7.342;2023-06-19T05:41:02;22.20;99.90
26326;DHT22;14032;52.510;7.342;2023-06-19T05:43:28;22.30;99.90
26326;DHT22;14032;52.510;7.342;2023-06-19T05:45:54;22.30;99.90
26326;DHT22;14032;52.510;7.342;2023-06-19T05:48:21;22.40;99.90
26326;DHT22;14032;52.510;7.342;2023-06-19T05:50:47;22.50;99.90
26326;DHT22;14032;52.510;7.342;2023-06-19T05:53:12;22.40;99.90
26326;DHT22;14032;52.510;7.342;2023-06-19T05:55:38;22.50;99.90
26326;DHT22;14032;52.510;7.342;2023-06-19T05:58:04;22.50;99.90
26326;DHT22;14032;52.510;7.342;2023-06-19T06:00:30;22.40;99.90
26326;DHT22;14032;52.510;7.342;2023-06-19T06:03:00;22.40;99.90
26326;DHT22;14032;52.510;7.342;2023-06-19T06:05:26;22.30;99.90
26326;DHT22;14032;52.510;7.342;2023-06-19T06:07:53;22.20;99.90
26326;DHT22;14032;52.510;7.342;2023-06-19T06:10:27;22.20;99.90
26326;DHT22;14032;52.510;7.342;2023-06-19T06:12:53;22.20;99.90
26326;DHT22;14032;52.510;7.342;2023-06-19T06:15:19;22.20;99.90
26326;DHT22;14032;52.510;7.342;2023-06-19T06:17:45;22.20;99.90
26326;DHT22;14032;52.510;7.342;2023-06-19T06:20:11;22.30;99.90
26326;DHT22;14032;52.510;7.342;2023-06-19T06:22:41;22.40;99.90
26326;DHT22;14032;52.510;7.342;2023-06-19T06:25:07;22.50;99.90
26326;DHT22;14032;52.510;7.342;2023-06-19T06:27:33;22.50;99.90
26326;DHT22;14032;52.510;7.342;2023-06-19T06:29:59;22.50;99.90
26326;DHT22;14032;52.510;7.342;2023-06-19T06:32:24;22.50;99.90
26326;DHT22;14032;52.510;7.342;2023-06-19T06:34:51;22.40;99.90
26326;DHT22;14032;52.510;7.342;2023-06-19T06:37:17;22.50;99.90
26326;DHT22;14032;52.510;7.342;2023-06-19T06:39:50;22.50;99.90
26326;DHT22;14032;52.510;7.342;2023-06-19T06:42:17;22.60;99.90
26326;DHT22;14032;52.510;7.342;2023-06-19T06:44:43;22.70;99.90
26326;DHT22;14032;52.510;7.342;2023-06-19T06:47:08;22.60;99.90
26326;DHT22;14032;52.510;7.342;2023-06-19T06:49:34;22.70;99.90
26326;DHT22;14032;52.510;7.342;2023-06-19T06:52:02;22.70;99.90
26326;DHT22;14032;52.510;7.342;2023-06-19T06:54:28;22.60;99.90
26326;DHT22;14032;52.510;7.342;2023-06-19T06:56:54;22.60;99.90
26326;DHT22;14032;52.510;7.342;2023-06-19T06:59:24;22.60;99.90
26326;DHT22;14032;52.510;7.342;2023-06-19T07:01:50;22.60;99.90
26326;DHT22;14032;52.510;7.342;2023-06-19T07:04:15;22.50;99.90
26326;DHT22;14032;52.510;7.342;2023-06-19T07:06:41;22.50;99.90
26326;DHT22;14032;52.510;7.342;2023-06-19T07:09:06;22.40;99.90
26326;DHT22;14032;52.510;7.342;2023-06-19T07:11:32;22.40;99.90
26326;DHT22;14032;52.510;7.342;2023-06-19T07:13:58;22.40;99.90
26326;DHT22;14032;52.510;7.342;2023-06-19T07:16:23;22.30;99.90
26326;DHT22;14032;52.510;7.342;2023-06-19T07:18:49;22.20;99.90
26326;DHT22;14032;52.510;7.342;2023-06-19T07:21:14;22.10;99.90
26326;DHT22;14032;52.510;7.342;2023-06-19T07:23:41;22.00;99.90
26326;DHT22;14032;52.510;7.342;2023-06-19T07:26:08;21.90;99.90
26326;DHT22;14032;52.510;7.342;2023-06-19T07:28:34;21.80;99.90
26326;DHT22;14032;52.510;7.342;2023-06-19T07:31:02;21.80;99.90
26326;DHT22;14032;52.510;7.342;2023-06-19T07:33:28;21.70;99.90
26326;DHT22;14032;52.510;7.342;2023-06-19T07:35:53;21.70;99.90
26326;DHT22;14032;52.510;7.342;2023-06-19T07:38:19;21.70;99.90
26326;DHT22;14032;52.510;7.342;2023-06-19T07:40:44;21.60;99.90
26326;DHT22;14032;52.510;7.342;2023-06-19T07:43:10;21.70;99.90
26326;DHT22;14032;52.510;7.342;2023-06-19T07:45:36;21.60;99.90
26326;DHT22;14032;52.510;7.342;2023-06-19T07:48:01;21.60;99.90
26326;DHT22;14032;52.510;7.342;2023-06-19T07:50:27;21.50;99.90
26326;DHT22;14032;52.510;7.342;2023-06-19T07:52:53;21.50;99.90
26326;DHT22;14032;52.510;7.342;2023-06-19T07:55:18;21.40;99.90
26326;DHT22;14032;52.510;7.342;2023-06-19T07:57:44;21.50;99.90
26326;DHT22;14032;52.510;7.342;2023-06-19T08:00:10;21.50;99.90
26326;DHT22;14032;52.510;7.342;2023-06-19T08:02:40;21.50;99.90
26326;DHT22;14032;52.510;7.342;2023-06-19T08:05:07;21.50;99.90
26326;DHT22;14032;52.510;7.342;2023-06-19T08:07:34;21.50;99.90
26326;DHT22;14032;52.510;7.342;2023-06-19T08:09:59;21.50;99.90
26326;DHT22;14032;52.510;7.342;2023-06-19T08:12:25;21.50;99.90
26326;DHT22;14032;52.510;7.342;2023-06-19T08:14:50;21.40;99.90
26326;DHT22;14032;52.510;7.342;2023-06-19T08:17:16;21.40;99.90
26326;DHT22;14032;52.510;7.342;2023-06-19T08:19:41;21.40;99.90
26326;DHT22;14032;52.510;7.342;2023-06-19T08:22:08;21.40;99.90
26326;DHT22;14032;52.510;7.342;2023-06-19T08:24:35;21.40;99.90
26326;DHT22;14032;52.510;7.342;2023-06-19T08:27:02;21.40;99.90
26326;DHT22;14032;52.510;7.342;2023-06-19T08:29:27;21.40;99.90
26326;DHT22;14032;52.510;7.342;2023-06-19T08:31:53;21.30;99.90
26326;DHT22;14032;52.510;7.342;2023-06-19T08:34:19;21.30;99.90
26326;DHT22;14032;52.510;7.342;2023-06-19T08:36:44;21.40;99.90
26326;DHT22;14032;52.510;7.342;2023-06-19T08:39:10;21.40;99.90
26326;DHT22;14032;52.510;7.342;2023-06-19T08:41:39;21.40;99.90
26326;DHT22;14032;52.510;7.342;2023-06-19T08:44:08;21.40;99.90
26326;DHT22;14032;52.510;7.342;2023-06-19T08:46:35;21.50;99.90
26326;DHT22;14032;52.510;7.342;2023-06-19T08:49:03;21.50;99.90
26326;DHT22;14032;52.510;7.342;2023-06-19T08:51:29;21.50;99.90
26326;DHT22;14032;52.510;7.342;2023-06-19T08:54:02;21.60;99.90
26326;DHT22;14032;52.510;7.342;2023-06-19T08:56:29;21.60;99.90
26326;DHT22;14032;52.510;7.342;2023-06-19T08:59:11;21.60;99.90
26326;DHT22;14032;52.510;7.342;2023-06-19T09:01:38;21.80;99.90
26326;DHT22;14032;52.510;7.342;2023-06-19T09:04:11;21.80;99.90
26326;DHT22;14032;52.510;7.342;2023-06-19T09:06:55;21.80;99.90
26326;DHT22;14032;52.510;7.342;2023-06-19T09:09:22;21.90;99.90
26326;DHT22;14032;52.510;7.342;2023-06-19T09:12:01;21.80;99.90
26326;DHT22;14032;52.510;7.342;2023-06-19T09:14:34;21.80;99.90
26326;DHT22;14032;52.510;7.342;2023-06-19T09:17:04;21.70;99.90
26326;DHT22;14032;52.510;7.342;2023-06-19T09:19:30;21.70;99.90
26326;DHT22;14032;52.510;7.342;2023-06-19T09:22:17;21.70;99.90
26326;DHT22;14032;52.510;7.342;2023-06-19T09:24:45;21.70;99.90
26326;DHT22;14032;52.510;7.342;2023-06-19T09:27:16;21.70;99.90
26326;DHT22;14032;52.510;7.342;2023-06-19T09:29:47;21.70;99.90
26326;DHT22;14032;52.510;7.342;2023-06-19T09:32:26;21.80;99.90
26326;DHT22;14032;52.510;7.342;2023-06-19T09:34:54;21.80;99.90
26326;DHT22;14032;52.510;7.342;2023-06-19T09:37:23;21.80;99.90
26326;DHT22;14032;52.510;7.342;2023-06-19T09:40:00;21.80;99.90
26326;DHT22;14032;52.510;7.342;2023-06-19T09:42:29;21.80;99.90
26326;DHT22;14032;52.510;7.342;2023-06-19T09:45:02;21.80;99.90
26326;DHT22;14032;52.510;7.342;2023-06-19T09:47:37;21.90;99.90
26326;DHT22;14032;52.510;7.342;2023-06-19T09:50:04;21.80;99.90
26326;DHT22;14032;52.510;7.342;2023-06-19T09:52:31;21.90;99.90
26326;DHT22;14032;52.510;7.342;2023-06-19T09:54:57;21.90;99.90
26326;DHT22;14032;52.510;7.342;2023-06-19T09:57:25;21.80;99.90
26326;DHT22;14032;52.510;7.342;2023-06-19T09:59:54;21.80;99.90
26326;DHT22;14032;52.510;7.342;2023-06-19T10:02:22;21.80;99.90
26326;DHT22;14032;52.510;7.342;2023-06-19T10:04:53;21.80;99.90
26326;DHT22;14032;52.510;7.342;2023-06-19T10:07:22;21.80;99.90
26326;DHT22;14032;52.510;7.342;2023-06-19T10:10:04;21.90;99.90
26326;DHT22;14032;52.510;7.342;2023-06-19T10:12:36;22.10;99.90
26326;DHT22;14032;52.510;7.342;2023-06-19T10:17:38;22.50;99.90
26326;DHT22;14032;52.510;7.342;2023-06-19T10:20:19;22.60;99.90
26326;DHT22;14032;52.510;7.342;2023-06-19T10:22:53;22.70;99.90
26326;DHT22;14032;52.510;7.342;2023-06-19T10:25:23;22.80;99.90
26326;DHT22;14032;52.510;7.342;2023-06-19T10:27:49;22.90;99.90
26326;DHT22;14032;52.510;7.342;2023-06-19T10:30:18;23.00;99.90
26326;DHT22;14032;52.510;7.342;2023-06-19T10:32:47;23.00;99.90
26326;DHT22;14032;52.510;7.342;2023-06-19T10:35:15;23.10;99.90
26326;DHT22;14032;52.510;7.342;2023-06-19T10:37:41;23.10;99.90
26326;DHT22;14032;52.510;7.342;2023-06-19T10:40:07;23.30;99.90
26326;DHT22;14032;52.510;7.342;2023-06-19T10:42:38;23.50;99.90
26326;DHT22;14032;52.510;7.342;2023-06-19T10:45:05;23.80;99.90
26326;DHT22;14032;52.510;7.342;2023-06-19T10:47:34;23.90;99.90
26326;DHT22;14032;52.510;7.342;2023-06-19T10:50:00;24.10;99.90
26326;DHT22;14032;52.510;7.342;2023-06-19T10:52:29;24.20;99.90
26326;DHT22;14032;52.510;7.342;2023-06-19T10:54:55;24.10;99.90
26326;DHT22;14032;52.510;7.342;2023-06-19T10:57:31;24.10;99.90
26326;DHT22;14032;52.510;7.342;2023-06-19T10:59:57;24.00;99.90
26326;DHT22;14032;52.510;7.342;2023-06-19T11:02:24;23.90;99.90
26326;DHT22;14032;52.510;7.342;2023-06-19T11:04:54;23.80;99.90
26326;DHT22;14032;52.510;7.342;2023-06-19T11:07:21;23.80;99.90
26326;DHT22;14032;52.510;7.342;2023-06-19T11:09:48;23.80;99.90
26326;DHT22;14032;52.510;7.342;2023-06-19T11:12:19;23.80;99.90
26326;DHT22;14032;52.510;7.342;2023-06-19T11:14:46;24.00;99.90
26326;DHT22;14032;52.510;7.342;2023-06-19T11:17:11;24.20;99.90
26326;DHT22;14032;52.510;7.342;2023-06-19T11:19:37;24.20;99.90
26326;DHT22;14032;52.510;7.342;2023-06-19T11:22:05;24.20;99.90
26326;DHT22;14032;52.510;7.342;2023-06-19T11:24:32;24.10;99.90
26326;DHT22;14032;52.510;7.342;2023-06-19T11:26:58;24.10;99.90
26326;DHT22;14032;52.510;7.342;2023-06-19T11:29:25;24.20;99.90
26326;DHT22;14032;52.510;7.342;2023-06-19T11:31:53;24.20;99.90
26326;DHT22;14032;52.510;7.342;2023-06-19T11:34:19;24.10;99.90
26326;DHT22;14032;52.510;7.342;2023-06-19T11:36:45;23.90;99.90
26326;DHT22;14032;52.510;7.342;2023-06-19T11:39:13;24.00;99.90
26326;DHT22;14032;52.510;7.342;2023-06-19T11:41:39;24.10;99.90
26326;DHT22;14032;52.510;7.342;2023-06-19T11:44:06;24.30;99.90
26326;DHT22;14032;52.510;7.342;2023-06-19T11:46:33;24.30;99.90
26326;DHT22;14032;52.510;7.342;2023-06-19T11:49:12;24.40;99.90
26326;DHT22;14032;52.510;7.342;2023-06-19T11:51:38;24.20;99.90
26326;DHT22;14032;52.510;7.342;2023-06-19T11:54:05;24.20;99.90
26326;DHT22;14032;52.510;7.342;2023-06-19T11:56:32;24.20;99.90
26326;DHT22;14032;52.510;7.342;2023-06-19T11:58:57;24.50;99.90
26326;DHT22;14032;52.510;7.342;2023-06-19T12:01:23;24.50;99.70
26326;DHT22;14032;52.510;7.342;2023-06-19T12:03:48;24.60;98.30
26326;DHT22;14032;52.510;7.342;2023-06-19T12:06:16;24.60;98.40
26326;DHT22;14032;52.510;7.342;2023-06-19T12:08:43;24.60;98.80
26326;DHT22;14032;52.510;7.342;2023-06-19T12:11:08;24.50;98.50
26326;DHT22;14032;52.510;7.342;2023-06-19T12:13:35;24.50;98.60
26326;DHT22;14032;52.510;7.342;2023-06-19T12:16:01;24.30;98.50
26326;DHT22;14032;52.510;7.342;2023-06-19T12:18:27;24.30;98.70
26326;DHT22;14032;52.510;7.342;2023-06-19T12:20:53;24.40;98.80
26326;DHT22;14032;52.510;7.342;2023-06-19T12:23:18;24.40;98.30
26326;DHT22;14032;52.510;7.342;2023-06-19T12:25:44;24.50;97.80
26326;DHT22;14032;52.510;7.342;2023-06-19T12:28:10;24.60;96.40
26326;DHT22;14032;52.510;7.342;2023-06-19T12:30:36;24.60;96.50
26326;DHT22;14032;52.510;7.342;2023-06-19T12:33:02;24.50;96.20
26326;DHT22;14032;52.510;7.342;2023-06-19T12:35:29;24.50;95.10
26326;DHT22;14032;52.510;7.342;2023-06-19T12:37:55;24.50;95.20
26326;DHT22;14032;52.510;7.342;2023-06-19T12:40:21;24.50;95.70
26326;DHT22;14032;52.510;7.342;2023-06-19T12:42:46;24.50;95.60
26326;DHT22;14032;52.510;7.342;2023-06-19T12:45:12;24.50;95.30
26326;DHT22;14032;52.510;7.342;2023-06-19T12:47:38;24.50;95.60
26326;DHT22;14032;52.510;7.342;2023-06-19T12:50:04;24.50;94.60
26326;DHT22;14032;52.510;7.342;2023-06-19T12:52:30;24.50;94.90
26326;DHT22;14032;52.510;7.342;2023-06-19T12:54:56;24.50;95.30
26326;DHT22;14032;52.510;7.342;2023-06-19T12:57:24;24.50;95.30
26326;DHT22;14032;52.510;7.342;2023-06-19T12:59:49;24.50;94.80
26326;DHT22;14032;52.510;7.342;2023-06-19T13:02:15;24.50;94.20
26326;DHT22;14032;52.510;7.342;2023-06-19T13:04:40;24.50;93.80
26326;DHT22;14032;52.510;7.342;2023-06-19T13:07:06;24.50;94.40
26326;DHT22;14032;52.510;7.342;2023-06-19T13:09:32;24.50;94.60
26326;DHT22;14032;52.510;7.342;2023-06-19T13:11:57;24.60;93.20
26326;DHT22;14032;52.510;7.342;2023-06-19T13:14:23;24.70;93.50
26326;DHT22;14032;52.510;7.342;2023-06-19T13:16:48;24.70;93.20
26326;DHT22;14032;52.510;7.342;2023-06-19T13:19:15;24.80;92.90
26326;DHT22;14032;52.510;7.342;2023-06-19T13:21:41;24.80;92.40
26326;DHT22;14032;52.510;7.342;2023-06-19T13:24:07;24.80;92.60
26326;DHT22;14032;52.510;7.342;2023-06-19T13:26:32;24.80;93.00
26326;DHT22;14032;52.510;7.342;2023-06-19T13:28:58;24.80;92.10
26326;DHT22;14032;52.510;7.342;2023-06-19T13:31:24;24.80;91.50
26326;DHT22;14032;52.510;7.342;2023-06-19T13:33:50;24.90;92.00
26326;DHT22;14032;52.510;7.342;2023-06-19T13:36:16;24.90;92.50
26326;DHT22;14032;52.510;7.342;2023-06-19T13:38:44;24.90;92.80
26326;DHT22;14032;52.510;7.342;2023-06-19T13:41:09;25.00;92.50
26326;DHT22;14032;52.510;7.342;2023-06-19T13:43:35;25.00;91.00
26326;DHT22;14032;52.510;7.342;2023-06-19T13:46:00;25.00;91.90
26326;DHT22;14032;52.510;7.342;2023-06-19T13:48:28;25.00;92.60
26326;DHT22;14032;52.510;7.342;2023-06-19T13:50:54;25.00;92.90
26326;DHT22;14032;52.510;7.342;2023-06-19T13:53:19;24.90;93.30
26326;DHT22;14032;52.510;7.342;2023-06-19T13:55:47;24.90;91.90
26326;DHT22;14032;52.510;7.342;2023-06-19T13:58:12;24.90;92.20
26326;DHT22;14032;52.510;7.342;2023-06-19T14:00:38;25.00;90.90
26326;DHT22;14032;52.510;7.342;2023-06-19T14:03:04;25.10;91.30
26326;DHT22;14032;52.510;7.342;2023-06-19T14:05:32;25.00;90.90
26326;DHT22;14032;52.510;7.342;2023-06-19T14:08:01;24.90;91.30
26326;DHT22;14032;52.510;7.342;2023-06-19T14:10:29;24.90;91.80
26326;DHT22;14032;52.510;7.342;2023-06-19T14:12:54;24.90;92.30
26326;DHT22;14032;52.510;7.342;2023-06-19T14:15:20;24.90;91.70
26326;DHT22;14032;52.510;7.342;2023-06-19T14:17:46;24.80;91.90
26326;DHT22;14032;52.510;7.342;2023-06-19T14:20:12;24.90;91.90
26326;DHT22;14032;52.510;7.342;2023-06-19T14:22:38;24.90;91.80
26326;DHT22;14032;52.510;7.342;2023-06-19T14:25:04;24.90;92.00
26326;DHT22;14032;52.510;7.342;2023-06-19T14:27:29;24.90;92.10
26326;DHT22;14032;52.510;7.342;2023-06-19T14:29:55;24.90;92.40
26326;DHT22;14032;52.510;7.342;2023-06-19T14:32:22;25.00;92.20
26326;DHT22;14032;52.510;7.342;2023-06-19T14:34:48;25.10;91.50
26326;DHT22;14032;52.510;7.342;2023-06-19T14:37:14;25.10;91.50
26326;DHT22;14032;52.510;7.342;2023-06-19T14:39:40;25.10;91.40
26326;DHT22;14032;52.510;7.342;2023-06-19T14:42:05;25.20;91.40
26326;DHT22;14032;52.510;7.342;2023-06-19T14:44:31;25.20;91.30
26326;DHT22;14032;52.510;7.342;2023-06-19T14:47:00;25.20;91.40
26326;DHT22;14032;52.510;7.342;2023-06-19T14:49:26;25.10;91.50
26326;DHT22;14032;52.510;7.342;2023-06-19T14:51:51;25.10;91.60
26326;DHT22;14032;52.510;7.342;2023-06-19T14:54:17;25.10;91.20
26326;DHT22;14032;52.510;7.342;2023-06-19T14:56:44;25.10;91.40
26326;DHT22;14032;52.510;7.342;2023-06-19T14:59:13;25.10;91.40
26326;DHT22;14032;52.510;7.342;2023-06-19T15:01:39;25.10;91.40
26326;DHT22;14032;52.510;7.342;2023-06-19T15:04:05;25.10;92.00
26326;DHT22;14032;52.510;7.342;2023-06-19T15:06:31;25.10;91.40
26326;DHT22;14032;52.510;7.342;2023-06-19T15:08:56;25.20;91.60
26326;DHT22;14032;52.510;7.342;2023-06-19T15:11:22;25.20;91.60
26326;DHT22;14032;52.510;7.342;2023-06-19T15:13:47;25.20;91.70
26326;DHT22;14032;52.510;7.342;2023-06-19T15:16:13;25.20;92.00
26326;DHT22;14032;52.510;7.342;2023-06-19T15:18:40;25.30;91.90
26326;DHT22;14032;52.510;7.342;2023-06-19T15:21:06;25.30;91.90
26326;DHT22;14032;52.510;7.342;2023-06-19T15:23:33;25.30;91.60
26326;DHT22;14032;52.510;7.342;2023-06-19T15:25:58;25.40;91.70
26326;DHT22;14032;52.510;7.342;2023-06-19T15:28:24;25.50;91.70
26326;DHT22;14032;52.510;7.342;2023-06-19T15:30:50;25.50;90.40
26326;DHT22;14032;52.510;7.342;2023-06-19T15:33:15;25.50;90.50